Lenora, KS (67645)

12:26 PM CST on December 08, 2016 (GMT -0600)
1 East, 2.5 South | | Change Station

Elev 2467 ft 39.57 °N, 99.99 °W | Updated 4 minutes ago

Clear
Clear
17.0 °F
Feels Like 6 °F
N
9.0
Wind Variable Wind from NW
Gusts 12.0 mph

Today
High -- | Low -- °F
--% Chance of Precip.
Yesterday
High -- | Low -- °F
Precip. -- in
Pressure 30.81 in
Visibility 10.0 miles
Clouds Clear
Windchill 6 °F
Dew Point Not available.
Humidity Not available.
Rainfall Not available.
Snow Depth Not available.
7:48 AM 5:15 PM
Waxing Gibbous, 65% visible
METAR KHLC 081753Z AUTO 33011KT 10SM CLR M08/M15 A3069 RMK AO2 SLP433 T10781150 11078 21172 50003
Pressure 30.81 in
Visibility 10.0 miles
Clouds Clear
Windchill 6 °F
Dew Point Not available.
Humidity Not available.
Rainfall Not available.
Snow Depth Not available.
7:48 AM 5:15 PM
Waxing Gibbous, 65% visible
METAR KHLC 081753Z AUTO 33011KT 10SM CLR M08/M15 A3069 RMK AO2 SLP433 T10781150 11078 21172 50003

10-Day Weather Forecast

Almanac

Astronomy

Dec. 08, 2016 Rise Set
Actual Time
Civil Twilight
Nautical Twilight
Astronomical Twilight
Moon
Length of Visible Light
Length of Day
Tomorrow will be .
, % of the Moon is Illuminated

Today's Extremes

State Highs State Lows

Community

WunderPhotos

Upload Photos

1,956,277 photos uploaded!

WunderBlog® & News

Nearby

Air Quality

  Air Quality AQ Index Pollutant
Not available.

Snow Depth

Station Depth Elevation

Earthquake Activity

City Distance Mag. Time & Date
Minimum magnitude displayed is 2.5.

Coastal Water Temperatures

Place Temperature

Stations

Nearby Weather Stations

Station Location Temp. Windchill Dew Point Humidity Wind Precip. Elev Updated Type
                   

Watches & Warnings

There are currently no watches in effect.